TNCM Airport Information

Runway Information
Runway 09 Length 7708 ft width 148 ft
Elevation 11 ft Threshold 162 ft Heading 81
Runway 27 Length 7708 ft Width 148 ft
Elevation 11 ft Threshold 394 ft Heading 261
Runway 10 Length 7152 ft width 148 ft
Elevation 12 ft Threshold 0 ft Heading 81
Runway 28 Length 7152 ft Width 148 ft
Elevation 9 ft Threshold 0 ft Heading 261
Airport Frequencies
Type APP Name JULIANA AP Frequency 128.95 MHZ
Type TWR Name JULIANA TW Frequency 118.7 MHZ
Airport Navaids
Type NDB Name St.mMarten Frequency 284 KHZ
Type VOR-DME Name St.mMarten Frequency 113000 KHZ
Airport Weather Information & NOTAM
ADDS - METARS form results

(1314 UTC 22 June 2018)
 
METAR text: TNCM 221300Z 10011KT 070V140 9999 -SHRA FEW019 BKN036 29/22 Q1019 NOSIG RMK A3009 ADJ SHWRS NE LGT HZ ALSEC
Conditions at: TNCM (ST MAARTEN JULIA, VI) observed 1300 UTC 22 June 2018
Temperature: 29.0°C (84°F)
Dewpoint: 22.0°C (72°F) [RH = 66%]
Pressure (altimeter): 30.09 inches Hg (1019.0 mb)
Winds: from the E (100 degrees) at 13 MPH (11 knots; 5.7 m/s)
Visibility: 6 or more miles (10+ km)
Ceiling: 3600 feet AGL
Clouds: few clouds at 1900 feet AGL
broken clouds at 3600 feet AGL
Weather: -SHRA  (light rain showers)